createdAt,value
2019-03-17T00:00:11.701Z,41.77
2019-03-17T00:01:16.769Z,41.69
2019-03-17T00:02:20.361Z,41.59
2019-03-17T00:03:23.788Z,41.32
2019-03-17T00:04:31.764Z,41.25
2019-03-17T00:05:32.390Z,40.86
2019-03-17T00:06:35.826Z,40.90
2019-03-17T00:07:39.261Z,40.87
2019-03-17T00:08:42.765Z,41.03
2019-03-17T00:09:46.205Z,41.15
2019-03-17T00:10:52.489Z,41.08
2019-03-17T00:11:54.785Z,40.59
2019-03-17T00:12:58.510Z,40.65
2019-03-17T00:14:02.015Z,40.75
2019-03-17T00:15:06.516Z,40.72
2019-03-17T00:16:10.046Z,40.65
2019-03-17T00:17:13.476Z,40.81
2019-03-17T00:18:16.927Z,40.43
2019-03-17T00:19:20.349Z,40.47
2019-03-17T00:20:23.812Z,40.41
2019-03-17T00:21:27.239Z,40.32
2019-03-17T00:22:30.680Z,40.48
2019-03-17T00:23:34.112Z,40.48
2019-03-17T00:24:37.608Z,40.50
2019-03-17T00:25:41.105Z,40.57
2019-03-17T00:26:44.633Z,40.19
2019-03-17T00:27:48.061Z,40.26
2019-03-17T00:28:51.563Z,40.36
2019-03-17T00:29:55.064Z,40.41
2019-03-17T00:30:58.518Z,40.25
2019-03-17T00:32:02.061Z,39.65
2019-03-17T00:33:05.477Z,39.59
2019-03-17T00:34:08.900Z,39.65
2019-03-17T00:35:12.426Z,39.77
2019-03-17T00:36:15.831Z,39.68
2019-03-17T00:37:19.271Z,39.58
2019-03-17T00:38:22.711Z,39.48
2019-03-17T00:39:26.145Z,39.51
2019-03-17T00:40:29.653Z,39.36
2019-03-17T00:41:33.157Z,39.93
2019-03-17T00:42:36.627Z,40.51
2019-03-17T00:43:40.140Z,41.16
2019-03-17T00:44:43.544Z,41.71
2019-03-17T00:45:47.069Z,42.31
2019-03-17T00:46:50.506Z,42.58
2019-03-17T00:47:54.009Z,42.78
2019-03-17T00:48:57.508Z,43.18
2019-03-17T00:50:00.938Z,42.89
2019-03-17T00:51:04.509Z,43.21
2019-03-17T00:52:07.988Z,43.33
2019-03-17T00:53:11.428Z,43.36
2019-03-17T00:54:14.864Z,43.40
2019-03-17T00:55:18.293Z,43.52
2019-03-17T00:56:21.799Z,43.62
2019-03-17T00:57:25.272Z,43.76
2019-03-17T00:58:28.684Z,43.75
2019-03-17T00:59:32.115Z,43.65
2019-03-17T01:00:35.608Z,43.66
2019-03-17T01:01:39.131Z,43.72
2019-03-17T01:02:42.632Z,43.84
2019-03-17T01:03:46.061Z,43.91
2019-03-17T01:04:56.241Z,43.90
2019-03-17T01:05:54.736Z,43.77
2019-03-17T01:06:58.178Z,43.81
2019-03-17T01:08:01.682Z,43.79
2019-03-17T01:09:06.018Z,43.57
2019-03-17T01:10:10.076Z,43.71
2019-03-17T01:11:13.511Z,43.57
2019-03-17T01:12:17.014Z,43.71
2019-03-17T01:13:20.533Z,43.73
2019-03-17T01:14:23.964Z,43.64
2019-03-17T01:15:27.414Z,43.69
2019-03-17T01:16:30.910Z,43.61
2019-03-17T01:17:34.399Z,43.66
2019-03-17T01:18:37.877Z,43.74
2019-03-17T01:19:41.390Z,43.71
2019-03-17T01:20:44.786Z,43.92
2019-03-17T01:21:48.216Z,43.95
2019-03-17T01:22:51.660Z,44.06
2019-03-17T01:23:55.125Z,44.04
2019-03-17T01:24:58.701Z,44.16
2019-03-17T01:26:02.128Z,44.24
2019-03-17T01:27:05.700Z,44.42
2019-03-17T01:28:09.203Z,44.36
2019-03-17T01:29:12.714Z,44.42
2019-03-17T01:30:16.161Z,44.58
2019-03-17T01:31:19.605Z,44.56
2019-03-17T01:32:23.139Z,44.69
2019-03-17T01:33:26.547Z,44.72
2019-03-17T01:34:29.991Z,44.73
2019-03-17T01:35:33.433Z,44.62
2019-03-17T01:36:36.843Z,44.63
2019-03-17T01:37:40.291Z,44.55
2019-03-17T01:38:43.712Z,44.61
2019-03-17T01:39:47.164Z,44.92
2019-03-17T01:40:50.612Z,44.84
2019-03-17T01:41:54.090Z,44.86
2019-03-17T01:42:57.519Z,44.84
2019-03-17T01:44:00.945Z,45.00
2019-03-17T01:45:06.031Z,45.20
2019-03-17T01:46:09.583Z,45.23
2019-03-17T01:47:13.055Z,45.13
2019-03-17T01:48:16.553Z,45.05
2019-03-17T01:49:20.092Z,45.29
2019-03-17T01:50:23.514Z,45.39
2019-03-17T01:51:26.924Z,45.44
2019-03-17T01:52:30.349Z,45.37
2019-03-17T01:53:33.785Z,45.49
2019-03-17T01:54:37.216Z,45.39
2019-03-17T01:55:40.658Z,45.36
2019-03-17T01:56:44.081Z,45.28
2019-03-17T01:57:47.513Z,45.15
2019-03-17T01:58:50.946Z,45.20
2019-03-17T01:59:54.359Z,45.07
2019-03-17T02:00:57.899Z,45.32
2019-03-17T02:02:01.387Z,45.23
2019-03-17T02:03:04.888Z,45.31
2019-03-17T02:04:08.379Z,45.39
2019-03-17T02:05:21.247Z,45.12
2019-03-17T02:06:17.178Z,44.94
2019-03-17T02:07:20.708Z,45.00
2019-03-17T02:08:24.134Z,44.97
2019-03-17T02:09:27.564Z,45.13
2019-03-17T02:10:31.052Z,45.14
2019-03-17T02:11:34.500Z,45.16
2019-03-17T02:12:38.003Z,45.28
2019-03-17T02:13:41.432Z,45.32
2019-03-17T02:14:44.929Z,45.29
2019-03-17T02:15:48.377Z,45.13
2019-03-17T02:16:51.873Z,44.86
2019-03-17T02:17:55.275Z,44.79
2019-03-17T02:18:58.705Z,44.78
2019-03-17T02:20:02.195Z,44.85
2019-03-17T02:21:05.765Z,44.76
2019-03-17T02:22:09.272Z,44.70
2019-03-17T02:23:12.721Z,44.76
2019-03-17T02:24:16.151Z,44.92
2019-03-17T02:25:19.644Z,44.79
2019-03-17T02:26:23.066Z,44.74
2019-03-17T02:27:26.593Z,44.68
2019-03-17T02:28:30.014Z,44.80
2019-03-17T02:29:33.453Z,44.80
2019-03-17T02:30:36.959Z,44.77
2019-03-17T02:31:43.259Z,44.77
2019-03-17T02:32:46.698Z,44.18
2019-03-17T02:33:50.154Z,44.25
2019-03-17T02:34:53.579Z,44.12
2019-03-17T02:35:57.058Z,44.14
2019-03-17T02:37:00.488Z,44.22
2019-03-17T02:38:03.975Z,44.16
2019-03-17T02:39:07.454Z,44.22
2019-03-17T02:40:11.095Z,44.22
2019-03-17T02:41:14.638Z,44.31
2019-03-17T02:42:18.014Z,44.35
2019-03-17T02:43:21.475Z,43.98
2019-03-17T02:44:24.906Z,44.16
2019-03-17T02:45:28.333Z,44.14
2019-03-17T02:46:31.763Z,44.03
2019-03-17T02:47:35.199Z,44.68
2019-03-17T02:48:38.660Z,44.49
2019-03-17T02:49:42.146Z,44.49
2019-03-17T02:50:45.570Z,44.47
2019-03-17T02:51:49.080Z,44.59
2019-03-17T02:52:52.503Z,44.54
2019-03-17T02:53:55.973Z,44.81
2019-03-17T02:54:59.411Z,45.08
2019-03-17T02:56:02.902Z,44.84
2019-03-17T02:57:06.457Z,44.84
2019-03-17T02:58:09.976Z,44.95
2019-03-17T02:59:13.566Z,44.95
2019-03-17T03:00:18.640Z,45.00
2019-03-17T03:01:22.210Z,45.18
2019-03-17T03:02:25.702Z,45.21
2019-03-17T03:03:29.149Z,45.20
2019-03-17T03:04:32.596Z,45.27
2019-03-17T03:05:36.107Z,45.44
2019-03-17T03:06:39.607Z,45.45
2019-03-17T03:07:43.021Z,45.45
2019-03-17T03:08:46.535Z,45.29
2019-03-17T03:09:49.985Z,45.40
2019-03-17T03:10:53.537Z,45.37
2019-03-17T03:11:56.970Z,45.37
2019-03-17T03:13:00.534Z,45.11
2019-03-17T03:14:04.147Z,45.07
2019-03-17T03:15:09.219Z,45.04
2019-03-17T03:16:12.677Z,44.96
2019-03-17T03:17:16.091Z,44.96
2019-03-17T03:18:19.513Z,45.05
2019-03-17T03:19:22.938Z,45.27
2019-03-17T03:20:26.382Z,45.27
2019-03-17T03:21:29.881Z,45.28
2019-03-17T03:22:33.300Z,45.19
2019-03-17T03:23:36.738Z,44.98
2019-03-17T03:24:40.158Z,45.08
2019-03-17T03:25:43.666Z,44.81
2019-03-17T03:26:47.096Z,44.91
2019-03-17T03:27:50.590Z,44.90
2019-03-17T03:28:54.019Z,44.95
2019-03-17T03:29:57.438Z,44.86
2019-03-17T03:31:00.902Z,44.76
2019-03-17T03:32:04.406Z,44.92
2019-03-17T03:33:07.893Z,45.01
2019-03-17T03:34:11.326Z,45.12
2019-03-17T03:35:15.003Z,45.12
2019-03-17T03:36:18.450Z,45.31
2019-03-17T03:37:21.887Z,45.31
2019-03-17T03:38:25.314Z,45.26
2019-03-17T03:39:28.804Z,45.20
2019-03-17T03:40:32.392Z,45.06
2019-03-17T03:41:35.972Z,45.11
2019-03-17T03:42:39.423Z,45.23
2019-03-17T03:43:42.856Z,45.09
2019-03-17T03:44:46.278Z,44.88
2019-03-17T03:45:49.710Z,44.98
2019-03-17T03:46:53.152Z,44.99
2019-03-17T03:47:56.566Z,44.66
2019-03-17T03:49:00.131Z,44.75
2019-03-17T03:50:04.388Z,44.61
2019-03-17T03:51:07.901Z,44.46
2019-03-17T03:52:11.338Z,44.13
2019-03-17T03:53:14.765Z,44.13
2019-03-17T03:54:18.191Z,44.16
2019-03-17T03:55:21.622Z,44.43
2019-03-17T03:56:25.042Z,44.34
2019-03-17T03:57:28.474Z,44.52
2019-03-17T03:58:31.938Z,44.64
2019-03-17T03:59:35.350Z,44.73
2019-03-17T04:00:38.842Z,44.82
2019-03-17T04:01:42.354Z,44.87
2019-03-17T04:02:45.935Z,44.78
2019-03-17T04:03:49.501Z,45.04
2019-03-17T04:04:52.929Z,45.05
2019-03-17T04:05:56.419Z,44.98
2019-03-17T04:06:59.844Z,45.22
2019-03-17T04:08:03.287Z,45.24
2019-03-17T04:09:07.888Z,45.25
2019-03-17T04:10:12.094Z,45.34
2019-03-17T04:11:15.554Z,45.46
2019-03-17T04:12:18.973Z,45.43
2019-03-17T04:13:22.417Z,45.44
2019-03-17T04:14:25.949Z,45.52
2019-03-17T04:15:29.419Z,45.63
2019-03-17T04:16:32.850Z,45.48
2019-03-17T04:17:36.376Z,45.48
2019-03-17T04:18:39.877Z,45.72
2019-03-17T04:19:43.373Z,45.69
2019-03-17T04:20:46.876Z,45.96
2019-03-17T04:21:50.371Z,45.96
2019-03-17T04:22:53.810Z,45.73
2019-03-17T04:23:57.249Z,45.86
2019-03-17T04:25:00.870Z,46.23
2019-03-17T04:26:04.422Z,46.23
2019-03-17T04:27:07.853Z,46.02
2019-03-17T04:28:11.279Z,46.02
2019-03-17T04:29:14.725Z,46.00
2019-03-17T04:30:18.143Z,46.00
2019-03-17T04:31:21.570Z,46.07
2019-03-17T04:32:24.988Z,45.94
2019-03-17T04:33:28.419Z,46.06
2019-03-17T04:34:31.870Z,45.91
2019-03-17T04:35:35.372Z,45.68
2019-03-17T04:36:40.572Z,45.90
2019-03-17T04:37:44.184Z,46.00
2019-03-17T04:38:47.597Z,46.11
2019-03-17T04:39:51.041Z,46.03
2019-03-17T04:40:54.518Z,46.04
2019-03-17T04:41:57.940Z,46.00
2019-03-17T04:43:01.367Z,46.10
2019-03-17T04:44:04.862Z,46.32
2019-03-17T04:45:08.952Z,46.43
2019-03-17T04:46:12.469Z,46.39
2019-03-17T04:47:15.916Z,46.25
2019-03-17T04:48:19.342Z,46.22
2019-03-17T04:49:22.769Z,46.15
2019-03-17T04:50:26.289Z,45.95
2019-03-17T04:51:29.723Z,46.00
2019-03-17T04:52:33.245Z,46.17
2019-03-17T04:53:36.660Z,45.94
2019-03-17T04:54:40.110Z,45.99
2019-03-17T04:55:43.553Z,46.04
2019-03-17T04:56:47.003Z,46.01
2019-03-17T04:57:50.411Z,46.02
2019-03-17T04:58:53.831Z,45.97
2019-03-17T04:59:57.258Z,45.79
2019-03-17T05:01:00.762Z,45.83
2019-03-17T05:02:04.256Z,45.98
2019-03-17T05:03:07.677Z,45.95
2019-03-17T05:04:11.201Z,46.13
2019-03-17T05:05:14.688Z,46.03
2019-03-17T05:06:18.140Z,46.06
2019-03-17T05:07:21.555Z,45.96
2019-03-17T05:08:24.985Z,45.90
2019-03-17T05:09:28.473Z,45.78
2019-03-17T05:10:31.902Z,45.76
2019-03-17T05:11:35.344Z,45.62
2019-03-17T05:12:38.790Z,45.19
2019-03-17T05:13:42.289Z,45.17
2019-03-17T05:14:45.745Z,45.25
2019-03-17T05:15:49.130Z,45.27
2019-03-17T05:16:52.716Z,45.19
2019-03-17T05:17:56.356Z,45.18
2019-03-17T05:18:59.782Z,45.11
2019-03-17T05:20:04.342Z,45.04
2019-03-17T05:21:07.840Z,44.99
2019-03-17T05:22:11.360Z,45.01
2019-03-17T05:23:14.907Z,44.95
2019-03-17T05:24:18.343Z,44.80
2019-03-17T05:25:21.940Z,44.80
2019-03-17T05:26:25.376Z,44.69
2019-03-17T05:27:28.806Z,44.46
2019-03-17T05:28:32.298Z,44.50
2019-03-17T05:29:35.727Z,44.38
2019-03-17T05:30:39.225Z,44.14
2019-03-17T05:31:42.637Z,43.74
2019-03-17T05:32:46.203Z,43.87
2019-03-17T05:33:49.579Z,43.57
2019-03-17T05:34:53.005Z,43.72
2019-03-17T05:35:56.460Z,43.36
2019-03-17T05:37:06.306Z,43.05
2019-03-17T05:38:05.043Z,43.21
2019-03-17T05:39:08.485Z,42.99
2019-03-17T05:40:11.977Z,42.81
2019-03-17T05:41:15.402Z,42.81
2019-03-17T05:42:18.850Z,42.71
2019-03-17T05:43:22.280Z,42.40
2019-03-17T05:44:25.730Z,42.20
2019-03-17T05:45:29.161Z,42.14
2019-03-17T05:46:32.600Z,41.96
2019-03-17T05:47:36.105Z,41.84
2019-03-17T05:48:39.536Z,41.75
2019-03-17T05:49:42.986Z,41.56
2019-03-17T05:50:46.411Z,41.80
2019-03-17T05:51:49.898Z,41.75
2019-03-17T05:52:53.346Z,41.49
2019-03-17T05:53:56.763Z,41.57
2019-03-17T05:55:00.427Z,41.42
2019-03-17T05:56:03.929Z,41.08
2019-03-17T05:57:07.358Z,40.80
2019-03-17T05:58:10.791Z,40.75
2019-03-17T05:59:14.258Z,40.41
2019-03-17T06:00:18.713Z,40.29
2019-03-17T06:01:22.207Z,40.19
2019-03-17T06:02:25.697Z,40.19
2019-03-17T06:03:29.123Z,39.39
2019-03-17T06:04:32.578Z,39.64
2019-03-17T06:05:36.004Z,39.24
2019-03-17T06:06:39.428Z,39.24
2019-03-17T06:07:42.933Z,39.30
2019-03-17T06:08:46.371Z,39.27
2019-03-17T06:09:49.812Z,38.82
2019-03-17T06:10:53.256Z,38.61
2019-03-17T06:11:56.678Z,38.56
2019-03-17T06:13:00.115Z,38.51
2019-03-17T06:14:03.596Z,38.54
2019-03-17T06:15:10.315Z,38.56
2019-03-17T06:16:13.737Z,38.58
2019-03-17T06:17:17.156Z,38.01
2019-03-17T06:18:20.576Z,38.04
2019-03-17T06:19:24.016Z,38.07
2019-03-17T06:20:27.465Z,37.69
2019-03-17T06:21:30.894Z,37.67
2019-03-17T06:22:34.407Z,37.93
2019-03-17T06:23:37.820Z,37.30
2019-03-17T06:24:41.241Z,37.30
2019-03-17T06:25:44.756Z,37.45
2019-03-17T06:26:48.180Z,37.53
2019-03-17T06:27:51.671Z,37.31
2019-03-17T06:28:55.089Z,37.30
2019-03-17T06:29:58.511Z,37.28
2019-03-17T06:31:01.993Z,37.45
2019-03-17T06:32:05.415Z,37.45
2019-03-17T06:33:08.844Z,37.27
2019-03-17T06:34:12.340Z,37.42
2019-03-17T06:35:15.766Z,37.00
2019-03-17T06:36:19.393Z,37.21
2019-03-17T06:37:30.926Z,37.09
2019-03-17T06:38:28.155Z,37.08
2019-03-17T06:39:31.702Z,36.83
2019-03-17T06:40:35.124Z,36.88
2019-03-17T06:41:38.565Z,36.83
2019-03-17T06:42:42.036Z,36.65
2019-03-17T06:43:45.506Z,36.89
2019-03-17T06:44:48.994Z,36.83
2019-03-17T06:45:52.492Z,36.85
2019-03-17T06:46:55.968Z,36.83
2019-03-17T06:47:59.444Z,36.93
2019-03-17T06:49:02.963Z,37.20
2019-03-17T06:50:14.480Z,37.08
2019-03-17T06:51:17.923Z,36.76
2019-03-17T06:52:21.368Z,36.80
2019-03-17T06:53:24.812Z,36.54
2019-03-17T06:54:28.420Z,36.29
2019-03-17T06:55:31.852Z,35.92
2019-03-17T06:56:35.273Z,35.71
2019-03-17T06:57:38.809Z,35.82
2019-03-17T06:58:42.342Z,35.83
2019-03-17T06:59:45.797Z,36.00
2019-03-17T07:00:49.237Z,35.54
2019-03-17T07:01:52.655Z,35.37
2019-03-17T07:02:56.179Z,35.33
2019-03-17T07:03:59.672Z,35.14
2019-03-17T07:05:03.347Z,35.18
2019-03-17T07:06:06.836Z,35.21
2019-03-17T07:07:10.267Z,34.78
2019-03-17T07:08:13.729Z,35.27
2019-03-17T07:09:17.152Z,35.51
2019-03-17T07:10:20.721Z,35.74
2019-03-17T07:11:24.147Z,35.82
2019-03-17T07:12:27.587Z,35.09
2019-03-17T07:13:31.036Z,35.41
2019-03-17T07:14:34.562Z,35.45
2019-03-17T07:15:38.057Z,35.24
2019-03-17T07:16:41.503Z,35.15
2019-03-17T07:17:45.029Z,35.36
2019-03-17T07:18:48.491Z,35.38
2019-03-17T07:19:51.940Z,35.13
2019-03-17T07:20:55.366Z,35.19
2019-03-17T07:21:58.796Z,35.09
2019-03-17T07:23:02.321Z,34.75
2019-03-17T07:24:05.827Z,34.96
2019-03-17T07:25:09.917Z,34.67
2019-03-17T07:26:13.424Z,34.77
2019-03-17T07:27:16.854Z,34.83
2019-03-17T07:28:20.300Z,34.88
2019-03-17T07:29:23.745Z,34.67
2019-03-17T07:30:27.177Z,35.08
2019-03-17T07:31:30.750Z,35.29
2019-03-17T07:32:34.184Z,35.44
2019-03-17T07:33:37.643Z,35.60
2019-03-17T07:34:41.090Z,35.58
2019-03-17T07:35:46.397Z,35.29
2019-03-17T07:36:49.680Z,35.34
2019-03-17T07:37:56.941Z,35.31
2019-03-17T07:39:10.859Z,35.40
2019-03-17T07:40:04.880Z,35.56
2019-03-17T07:41:08.300Z,35.45
2019-03-17T07:42:11.747Z,35.36
2019-03-17T07:43:15.175Z,35.66
2019-03-17T07:44:18.597Z,35.74
2019-03-17T07:45:22.113Z,35.83
2019-03-17T07:46:25.553Z,35.53
2019-03-17T07:47:28.980Z,35.12
2019-03-17T07:48:32.422Z,35.11
2019-03-17T07:49:35.943Z,34.49
2019-03-17T07:50:39.361Z,34.16
2019-03-17T07:51:42.911Z,34.34
2019-03-17T07:52:46.337Z,33.90
2019-03-17T07:53:49.761Z,34.09
2019-03-17T07:54:53.295Z,34.34
2019-03-17T07:55:56.762Z,33.49
2019-03-17T07:57:00.244Z,34.09
2019-03-17T07:58:03.815Z,34.15
2019-03-17T07:59:07.247Z,34.26
2019-03-17T08:00:14.359Z,33.85
2019-03-17T08:01:17.804Z,33.88
2019-03-17T08:02:21.295Z,34.02
2019-03-17T08:03:24.740Z,33.52
2019-03-17T08:04:28.240Z,33.67
2019-03-17T08:05:31.686Z,33.57
2019-03-17T08:06:35.200Z,33.01
2019-03-17T08:07:38.669Z,33.09
2019-03-17T08:08:42.263Z,32.38
2019-03-17T08:09:45.812Z,32.81
2019-03-17T08:10:49.323Z,32.31
2019-03-17T08:11:52.777Z,32.32
2019-03-17T08:12:56.214Z,32.27
2019-03-17T08:13:59.636Z,32.23
2019-03-17T08:15:03.241Z,32.55
2019-03-17T08:16:06.752Z,32.50
2019-03-17T08:17:10.195Z,32.21
2019-03-17T08:18:13.619Z,31.80
2019-03-17T08:19:17.047Z,32.18
2019-03-17T08:20:20.542Z,32.22
2019-03-17T08:21:23.984Z,32.15
2019-03-17T08:22:27.430Z,32.15
2019-03-17T08:23:30.864Z,31.65
2019-03-17T08:24:34.292Z,31.36
2019-03-17T08:25:37.860Z,31.01
2019-03-17T08:26:41.390Z,31.07
2019-03-17T08:27:44.842Z,30.75
2019-03-17T08:28:48.259Z,30.88
2019-03-17T08:29:51.689Z,30.78
2019-03-17T08:30:55.123Z,30.92
2019-03-17T08:31:58.574Z,30.78
2019-03-17T08:33:02.046Z,30.55
2019-03-17T08:34:05.590Z,30.76
2019-03-17T08:35:09.869Z,30.46
2019-03-17T08:36:13.291Z,30.48
2019-03-17T08:37:16.744Z,30.50
2019-03-17T08:38:22.080Z,30.48
2019-03-17T08:39:25.414Z,30.54
2019-03-17T08:40:28.911Z,30.73
2019-03-17T08:41:32.424Z,30.60
2019-03-17T08:42:35.872Z,30.68
2019-03-17T08:43:39.299Z,30.60
2019-03-17T08:44:42.807Z,30.32
2019-03-17T08:45:46.249Z,30.54
2019-03-17T08:46:49.666Z,30.72
2019-03-17T08:47:58.209Z,30.77
2019-03-17T08:48:58.393Z,30.84
2019-03-17T08:50:01.838Z,30.30
2019-03-17T08:51:05.334Z,30.06
2019-03-17T08:52:08.835Z,30.08
2019-03-17T08:53:12.272Z,29.95
2019-03-17T08:54:15.767Z,30.14
2019-03-17T08:55:19.270Z,30.14
2019-03-17T08:56:22.702Z,29.74
2019-03-17T08:57:26.149Z,29.29
2019-03-17T08:58:29.673Z,29.49
2019-03-17T08:59:33.212Z,29.18
2019-03-17T09:00:36.723Z,29.00
2019-03-17T09:01:40.162Z,29.33
2019-03-17T09:02:43.585Z,29.39
2019-03-17T09:03:47.029Z,29.24
2019-03-17T09:04:50.485Z,29.38
2019-03-17T09:05:53.939Z,29.44
2019-03-17T09:06:57.361Z,29.09
2019-03-17T09:08:00.829Z,29.04
2019-03-17T09:09:06.069Z,29.16
2019-03-17T09:10:14.323Z,28.83
2019-03-17T09:11:17.754Z,29.10
2019-03-17T09:12:21.188Z,28.74
2019-03-17T09:13:24.627Z,28.30
2019-03-17T09:14:28.077Z,28.46
2019-03-17T09:15:31.511Z,28.68
2019-03-17T09:16:35.016Z,28.54
2019-03-17T09:17:38.452Z,28.46
2019-03-17T09:18:41.877Z,28.37
2019-03-17T09:19:45.394Z,28.51
2019-03-17T09:20:48.820Z,28.53
2019-03-17T09:21:52.253Z,28.25
2019-03-17T09:22:55.693Z,28.25
2019-03-17T09:23:59.135Z,28.56
2019-03-17T09:25:02.604Z,28.57
2019-03-17T09:26:06.056Z,28.64
2019-03-17T09:27:09.567Z,28.56
2019-03-17T09:28:12.972Z,28.25
2019-03-17T09:29:16.480Z,28.10
2019-03-17T09:30:20.008Z,27.98
2019-03-17T09:31:23.444Z,28.37
2019-03-17T09:32:27.150Z,28.25
2019-03-17T09:33:30.623Z,27.92
2019-03-17T09:34:34.059Z,27.51
2019-03-17T09:35:37.636Z,27.69
2019-03-17T09:36:41.075Z,27.66
2019-03-17T09:37:44.508Z,27.65
2019-03-17T09:38:47.945Z,27.87
2019-03-17T09:39:51.375Z,28.06
2019-03-17T09:40:54.941Z,27.54
2019-03-17T09:41:58.438Z,27.76
2019-03-17T09:43:01.887Z,27.25
2019-03-17T09:44:05.375Z,26.96
2019-03-17T09:45:13.098Z,26.25
2019-03-17T09:46:16.611Z,26.68
2019-03-17T09:47:20.060Z,26.82
2019-03-17T09:48:23.737Z,26.50
2019-03-17T09:49:27.214Z,26.55
2019-03-17T09:50:30.652Z,25.22
2019-03-17T09:51:34.099Z,25.08
2019-03-17T09:52:37.540Z,24.85
2019-03-17T09:53:40.959Z,24.67
2019-03-17T09:54:44.393Z,25.00
2019-03-17T09:55:47.823Z,25.18
2019-03-17T09:56:51.290Z,24.90
2019-03-17T09:57:54.728Z,25.06
2019-03-17T09:58:58.156Z,24.63
2019-03-17T10:00:01.587Z,24.87
2019-03-17T10:01:05.022Z,25.15
2019-03-17T10:02:08.465Z,24.95
2019-03-17T10:03:11.900Z,24.98
2019-03-17T10:04:15.330Z,24.54
2019-03-17T10:05:18.841Z,24.38
2019-03-17T10:06:22.270Z,24.51
2019-03-17T10:07:25.809Z,24.66
2019-03-17T10:08:29.256Z,24.39
2019-03-17T10:09:32.677Z,24.60
2019-03-17T10:10:36.100Z,24.67
2019-03-17T10:11:40.797Z,24.71
2019-03-17T10:12:44.164Z,24.60
2019-03-17T10:13:47.594Z,24.68
2019-03-17T10:14:51.091Z,24.16
2019-03-17T10:15:54.557Z,24.32
2019-03-17T10:16:57.995Z,24.51
2019-03-17T10:18:01.436Z,24.62
2019-03-17T10:19:04.859Z,24.60
2019-03-17T10:20:15.943Z,24.84
2019-03-17T10:21:19.456Z,24.48
2019-03-17T10:22:22.898Z,24.15
2019-03-17T10:23:26.355Z,24.52
2019-03-17T10:24:29.784Z,24.46
2019-03-17T10:25:33.224Z,24.21
2019-03-17T10:26:36.646Z,24.43
2019-03-17T10:27:40.213Z,24.62
2019-03-17T10:28:43.735Z,24.73
2019-03-17T10:29:47.153Z,24.58
2019-03-17T10:30:50.646Z,24.79
2019-03-17T10:31:54.152Z,24.96
2019-03-17T10:32:57.586Z,24.87
2019-03-17T10:34:01.045Z,24.45
2019-03-17T10:35:05.326Z,24.03
2019-03-17T10:36:08.901Z,24.21
2019-03-17T10:37:12.322Z,24.30
2019-03-17T10:38:15.749Z,24.03
2019-03-17T10:39:19.259Z,23.89
2019-03-17T10:40:22.929Z,24.11
2019-03-17T10:41:26.415Z,23.61
2019-03-17T10:42:29.845Z,23.93
2019-03-17T10:43:33.270Z,23.73
2019-03-17T10:44:36.730Z,23.47
2019-03-17T10:45:40.162Z,23.68
2019-03-17T10:46:43.625Z,23.84
2019-03-17T10:47:47.065Z,24.02
2019-03-17T10:48:50.550Z,24.03
2019-03-17T10:49:54.062Z,23.96
2019-03-17T10:50:57.483Z,24.06
2019-03-17T10:52:00.909Z,24.28
2019-03-17T10:53:04.469Z,24.32
2019-03-17T10:54:07.899Z,24.40
2019-03-17T10:55:11.884Z,24.40
2019-03-17T10:56:15.405Z,24.26
2019-03-17T10:57:18.838Z,23.97
2019-03-17T10:58:22.281Z,23.93
2019-03-17T10:59:27.742Z,24.09
2019-03-17T11:00:30.883Z,24.36
2019-03-17T11:01:34.402Z,24.39
2019-03-17T11:02:37.849Z,24.41
2019-03-17T11:03:41.262Z,24.19
2019-03-17T11:04:44.683Z,24.21
2019-03-17T11:05:48.135Z,24.11
2019-03-17T11:06:51.583Z,23.67
2019-03-17T11:07:55.076Z,23.59
2019-03-17T11:08:58.505Z,24.02
2019-03-17T11:10:01.932Z,22.97
2019-03-17T11:11:05.535Z,23.52
2019-03-17T11:12:08.988Z,23.49
2019-03-17T11:13:12.490Z,23.06
2019-03-17T11:14:15.924Z,23.02
2019-03-17T11:15:20.396Z,23.21
2019-03-17T11:16:23.952Z,23.22
2019-03-17T11:17:27.393Z,23.26
2019-03-17T11:18:30.853Z,23.28
2019-03-17T11:19:34.277Z,23.05
2019-03-17T11:20:37.702Z,23.16
2019-03-17T11:21:41.251Z,22.89
2019-03-17T11:22:44.825Z,22.95
2019-03-17T11:23:48.270Z,22.79
2019-03-17T11:24:51.766Z,22.39
2019-03-17T11:25:55.195Z,22.06
2019-03-17T11:26:58.643Z,21.70
2019-03-17T11:28:02.087Z,21.80
2019-03-17T11:29:05.516Z,22.11
2019-03-17T11:30:12.000Z,21.61
2019-03-17T11:31:15.413Z,21.71
2019-03-17T11:32:18.860Z,21.70
2019-03-17T11:33:22.287Z,21.68
2019-03-17T11:34:25.742Z,22.00
2019-03-17T11:35:29.200Z,21.59
2019-03-17T11:36:32.628Z,21.52
2019-03-17T11:37:36.073Z,21.86
2019-03-17T11:38:39.506Z,21.95
2019-03-17T11:39:43.002Z,21.59
2019-03-17T11:40:46.431Z,21.59
2019-03-17T11:41:49.931Z,21.84
2019-03-17T11:42:53.395Z,21.78
2019-03-17T11:43:56.863Z,21.86
2019-03-17T11:45:00.461Z,21.98
2019-03-17T11:46:04.055Z,21.72
2019-03-17T11:47:07.498Z,21.88
2019-03-17T11:48:10.939Z,21.87
2019-03-17T11:49:14.475Z,21.81
2019-03-17T11:50:19.031Z,21.65
2019-03-17T11:51:22.462Z,21.57
2019-03-17T11:52:25.918Z,21.52
2019-03-17T11:53:29.506Z,21.46
2019-03-17T11:54:32.961Z,21.45
2019-03-17T11:55:36.455Z,21.53
2019-03-17T11:56:39.949Z,21.54
2019-03-17T11:57:43.516Z,21.04
2019-03-17T11:58:46.959Z,20.92
2019-03-17T11:59:50.521Z,21.07
2019-03-17T12:00:54.004Z,20.78
2019-03-17T12:01:57.514Z,20.82
2019-03-17T12:03:00.953Z,20.62
2019-03-17T12:04:04.547Z,20.86
2019-03-17T12:05:08.959Z,20.84
2019-03-17T12:06:12.385Z,20.87
2019-03-17T12:07:15.820Z,20.67
2019-03-17T12:08:19.257Z,20.48
2019-03-17T12:09:28.965Z,20.47
2019-03-17T12:10:27.922Z,19.98
2019-03-17T12:11:31.364Z,20.46
2019-03-17T12:12:34.809Z,20.63
2019-03-17T12:13:38.318Z,20.20
2019-03-17T12:14:41.841Z,20.12
2019-03-17T12:15:45.277Z,20.16
2019-03-17T12:16:48.783Z,20.03
2019-03-17T12:17:52.289Z,20.04
2019-03-17T12:18:55.733Z,20.37
2019-03-17T12:19:59.211Z,19.84
2019-03-17T12:21:02.737Z,20.19
2019-03-17T12:22:09.445Z,19.69
2019-03-17T12:23:11.392Z,20.18
2019-03-17T12:24:14.965Z,18.36
2019-03-17T12:25:19.059Z,17.93
2019-03-17T12:26:22.656Z,18.08
2019-03-17T12:27:26.162Z,16.47
2019-03-17T12:28:29.719Z,16.93
2019-03-17T12:29:33.096Z,16.89
2019-03-17T12:30:36.614Z,17.08
2019-03-17T12:31:40.192Z,16.94
2019-03-17T12:32:43.714Z,17.08
2019-03-17T12:33:47.152Z,16.87
2019-03-17T12:34:50.609Z,16.52
2019-03-17T12:35:54.062Z,17.31
2019-03-17T12:36:57.870Z,17.73
2019-03-17T12:38:01.298Z,17.86
2019-03-17T12:39:06.598Z,17.37
2019-03-17T12:40:10.271Z,18.34
2019-03-17T12:41:13.864Z,18.54
2019-03-17T12:42:17.324Z,18.50
2019-03-17T12:43:20.766Z,18.48
2019-03-17T12:44:24.194Z,18.46
2019-03-17T12:45:27.697Z,18.15
2019-03-17T12:46:31.221Z,18.19
2019-03-17T12:47:37.189Z,16.24
2019-03-17T12:48:39.874Z,16.20
2019-03-17T12:49:43.313Z,16.50
2019-03-17T12:50:46.746Z,14.97
2019-03-17T12:51:50.196Z,15.36
2019-03-17T12:52:53.639Z,15.32
2019-03-17T12:53:57.087Z,15.55
2019-03-17T12:55:00.601Z,14.84
2019-03-17T12:56:04.166Z,14.64
2019-03-17T12:57:07.608Z,14.81
2019-03-17T12:58:11.127Z,14.66
2019-03-17T12:59:14.556Z,14.99
2019-03-17T13:00:25.346Z,14.64
2019-03-17T13:01:28.786Z,14.98
2019-03-17T13:02:32.302Z,14.76
2019-03-17T13:03:35.738Z,14.76
2019-03-17T13:04:39.232Z,13.85
2019-03-17T13:05:42.662Z,13.85
2019-03-17T13:06:46.090Z,14.05
2019-03-17T13:07:49.713Z,14.25
2019-03-17T13:08:53.161Z,14.45
2019-03-17T13:09:56.618Z,14.22
2019-03-17T13:11:00.038Z,13.77
2019-03-17T13:12:03.545Z,13.77
2019-03-17T13:13:07.037Z,14.00
2019-03-17T13:14:10.484Z,14.02
2019-03-17T13:15:14.050Z,14.02
2019-03-17T13:16:17.495Z,14.34
2019-03-17T13:17:20.906Z,14.43
2019-03-17T13:18:24.445Z,14.43
2019-03-17T13:19:27.888Z,14.38
2019-03-17T13:20:31.388Z,14.16
2019-03-17T13:21:34.816Z,14.08
2019-03-17T13:22:38.414Z,14.85
2019-03-17T13:23:41.949Z,15.30
2019-03-17T13:24:45.386Z,15.30
2019-03-17T13:25:48.817Z,15.38
2019-03-17T13:26:52.252Z,15.38
2019-03-17T13:27:55.724Z,15.38
2019-03-17T13:28:59.133Z,15.38
2019-03-17T13:30:02.636Z,15.78
2019-03-17T13:31:06.132Z,15.78
2019-03-17T13:32:09.596Z,15.80
2019-03-17T13:33:13.062Z,16.84
2019-03-17T13:34:16.509Z,16.28
2019-03-17T13:35:19.933Z,16.28
2019-03-17T13:36:23.357Z,16.55
2019-03-17T13:37:26.781Z,16.29
2019-03-17T13:38:30.253Z,15.55